Time;durP1;ratioP1;P1;durP2;ratioP2;P2;SDS_P1;SDS_P2;PMS_P1;PMS_P2;Temp;Humidity;BMP_temperature;BMP_pressure;BME280_temperature;BME280_humidity;BME280_pressure;Samples;Min_cycle;Max_cycle;Signal;HPM_P1;HPM_P2
2021/03/29 00:00:24;;;;;;;11.80;2.90;;;;;;;14.15;69.94;101370.06;4993065;28;20030;-85
2021/03/29 00:02:50;;;;;;;15.00;3.08;;;;;;;13.98;70.16;101373.00;4993658;28;20072;-84
2021/03/29 00:05:17;;;;;;;11.60;2.63;;;;;;;13.87;71.50;101360.53;4993853;28;20647;-84
2021/03/29 00:07:45;;;;;;;26.13;3.75;;;;;;;14.15;70.16;101369.25;4992172;28;20034;-85
2021/03/29 00:10:12;;;;;;;14.55;2.33;;;;;;;13.70;72.01;101369.56;4992012;28;20081;-85
2021/03/29 00:12:42;;;;;;;15.45;2.97;;;;;;;13.91;71.40;101361.19;4991563;28;20428;-85
2021/03/29 00:15:10;;;;;;;16.05;2.60;;;;;;;14.01;71.25;101367.53;4991864;28;20023;-85
2021/03/29 00:17:38;;;;;;;21.83;4.38;;;;;;;14.02;70.77;101372.72;4992049;28;20097;-85
2021/03/29 00:20:14;;;;;;;17.27;2.92;;;;;;;14.26;69.95;101372.00;4994055;28;20018;-85
2021/03/29 00:22:40;;;;;;;8.38;1.95;;;;;;;14.37;69.16;101372.09;4994986;28;20037;-84
2021/03/29 00:25:07;;;;;;;10.10;2.55;;;;;;;14.16;69.65;101371.78;4995148;28;20031;-85
2021/03/29 00:27:32;;;;;;;11.82;2.42;;;;;;;13.92;70.60;101366.38;4995287;28;20030;-85
2021/03/29 00:29:58;;;;;;;21.65;3.08;;;;;;;13.84;71.27;101366.88;4995649;28;20026;-85
2021/03/29 00:32:23;;;;;;;13.00;2.42;;;;;;;13.92;71.29;101373.41;4995333;28;20037;-84
2021/03/29 00:34:49;;;;;;;8.77;2.80;;;;;;;13.81;71.91;101369.69;4995180;28;20037;-85
2021/03/29 00:37:15;;;;;;;14.55;3.53;;;;;;;13.87;71.07;101373.72;4994978;28;20693;-85
2021/03/29 00:39:41;;;;;;;15.35;2.72;;;;;;;14.13;70.14;101371.13;4995055;28;20031;-85
2021/03/29 00:42:07;;;;;;;18.65;3.08;;;;;;;13.97;71.41;101363.41;4994934;28;20037;-85
2021/03/29 00:44:34;;;;;;;15.65;3.78;;;;;;;13.95;71.47;101373.22;4995016;28;20030;-85
2021/03/29 00:47:01;;;;;;;13.70;2.60;;;;;;;13.83;72.00;101373.09;4994604;28;20500;-85
2021/03/29 00:49:27;;;;;;;13.25;3.65;;;;;;;13.91;71.29;101380.50;4991230;28;20030;-85
2021/03/29 00:51:52;;;;;;;17.58;3.35;;;;;;;13.64;72.34;101376.06;4994884;28;20366;-85
2021/03/29 00:54:18;;;;;;;13.80;2.80;;;;;;;13.59;73.47;101380.00;4994734;28;20131;-84
2021/03/29 00:56:44;;;;;;;15.65;3.70;;;;;;;13.81;72.95;101376.78;4994562;28;20271;-85
2021/03/29 00:59:11;;;;;;;12.13;2.42;;;;;;;14.05;71.26;101369.84;4994732;28;20028;-85
2021/03/29 01:01:48;;;;;;;18.13;3.30;;;;;;;14.13;71.11;101374.63;4994984;28;20021;-84
2021/03/29 01:04:14;;;;;;;15.13;3.03;;;;;;;13.67;72.76;101373.25;4994359;28;20030;-85
2021/03/29 01:06:42;;;;;;;12.70;2.50;;;;;;;13.79;72.64;101366.31;4994664;28;20507;-85
2021/03/29 01:09:15;;;;;;;14.73;3.53;;;;;;;13.60;74.00;101371.09;4994523;28;20024;-85
2021/03/29 01:11:43;;;;;;;18.73;4.00;;;;;;;13.67;73.74;101367.97;4993258;28;20026;-84
2021/03/29 01:14:13;;;;;;;10.63;2.80;;;;;;;13.83;72.36;101367.81;4993035;28;20437;-85
2021/03/29 01:16:48;;;;;;;15.75;2.75;;;;;;;14.11;71.16;101367.75;4994384;28;20607;-85
2021/03/29 01:19:20;;;;;;;13.35;2.83;;;;;;;13.89;72.89;101374.47;4993758;28;20420;-85
2021/03/29 01:22:05;;;;;;;11.77;2.58;;;;;;;13.82;72.60;101368.78;4994270;28;20040;-84
2021/03/29 01:24:55;;;;;;;14.00;2.72;;;;;;;13.73;72.36;101365.88;4994219;28;20092;-85
2021/03/29 01:27:26;;;;;;;14.10;2.60;;;;;;;13.93;71.86;101375.97;4982851;28;20039;-85
2021/03/29 01:29:53;;;;;;;17.38;2.60;;;;;;;13.90;72.17;101365.59;4973327;28;20609;-85
2021/03/29 01:32:20;;;;;;;14.50;2.40;;;;;;;14.15;71.32;101364.78;4975802;28;20110;-84
2021/03/29 01:34:47;;;;;;;13.40;3.42;;;;;;;14.14;70.67;101367.53;4975497;28;20027;-84
2021/03/29 01:37:13;;;;;;;9.85;2.47;;;;;;;14.21;70.60;101367.00;4974697;28;20030;-85
2021/03/29 01:39:41;;;;;;;8.98;2.00;;;;;;;14.25;69.93;101368.50;4986612;28;20396;-85
2021/03/29 01:42:09;;;;;;;22.70;2.78;;;;;;;14.23;70.29;101378.31;4993908;28;20038;-85
2021/03/29 01:44:35;;;;;;;13.50;2.90;;;;;;;13.77;72.32;101381.41;4993922;28;20050;-85
2021/03/29 01:47:02;;;;;;;13.05;2.45;;;;;;;13.87;72.25;101371.94;4993859;28;20038;-85
2021/03/29 01:49:28;;;;;;;13.95;2.30;;;;;;;13.94;71.72;101380.31;4993776;28;20489;-84
2021/03/29 01:51:54;;;;;;;13.98;2.30;;;;;;;13.78;72.46;101376.97;4993696;28;20041;-84
2021/03/29 01:54:19;;;;;;;13.40;3.55;;;;;;;14.08;70.82;101376.75;4993261;28;20568;-85
2021/03/29 01:56:45;;;;;;;23.27;2.67;;;;;;;14.01;71.09;101371.00;5007916;28;20125;-84
2021/03/29 01:59:11;;;;;;;18.42;2.88;;;;;;;14.26;70.12;101380.78;4993659;28;20025;-85
2021/03/29 02:01:36;;;;;;;13.60;2.70;;;;;;;14.20;70.60;101372.44;4994047;28;20457;-84
2021/03/29 02:04:06;;;;;;;9.90;2.72;;;;;;;14.02;70.81;101369.19;4993406;28;20385;-85
2021/03/29 02:06:32;;;;;;;11.80;2.95;;;;;;;14.29;70.52;101369.97;4993146;28;20397;-85
2021/03/29 02:08:59;;;;;;;20.27;3.05;;;;;;;14.07;71.12;101365.31;4993213;28;20058;-85
2021/03/29 02:11:25;;;;;;;12.48;2.53;;;;;;;14.32;69.98;101370.75;4993037;28;20034;-85
2021/03/29 02:13:53;;;;;;;18.90;3.35;;;;;;;13.65;73.50;101369.03;4992962;28;20053;-85
2021/03/29 02:16:19;;;;;;;13.07;3.25;;;;;;;13.65;74.16;101363.75;4993684;28;20045;-85
2021/03/29 02:18:48;;;;;;;19.08;3.00;;;;;;;13.85;72.36;101362.44;4993212;28;20030;-84
2021/03/29 02:21:32;;;;;;;10.15;2.15;;;;;;;14.11;72.14;101362.47;4993275;28;20033;-85
2021/03/29 02:23:58;;;;;;;15.10;2.67;;;;;;;13.92;72.06;101366.38;4992827;28;20054;-85
2021/03/29 02:26:27;;;;;;;15.50;2.78;;;;;;;14.01;72.19;101368.38;4993097;28;20030;-85
2021/03/29 02:28:53;;;;;;;15.45;3.65;;;;;;;13.45;74.71;101363.25;4993072;28;20077;-84
2021/03/29 02:31:22;;;;;;;24.80;3.38;;;;;;;13.64;74.52;101364.69;4992663;28;20381;-85
2021/03/29 02:33:49;;;;;;;13.85;3.70;;;;;;;13.49;74.85;101372.66;4993266;28;20038;-84
2021/03/29 02:36:16;;;;;;;14.32;4.25;;;;;;;13.31;75.93;101368.56;4992745;28;20048;-83
2021/03/29 02:38:42;;;;;;;17.45;3.28;;;;;;;13.20;76.61;101360.47;4993182;28;20026;-84
2021/03/29 02:41:08;;;;;;;15.55;2.95;;;;;;;13.21;76.66;101363.00;4992669;28;20042;-84
2021/03/29 02:43:34;;;;;;;12.50;2.15;;;;;;;13.42;76.04;101370.50;4992507;28;20271;-84
2021/03/29 02:46:05;;;;;;;14.85;3.05;;;;;;;13.14;77.38;101360.88;4992968;28;20089;-84
2021/03/29 02:48:39;;;;;;;14.80;2.92;;;;;;;13.45;76.37;101367.69;4992174;28;20496;-85
2021/03/29 02:51:08;;;;;;;9.35;3.45;;;;;;;13.33;77.18;101352.63;4992789;28;20034;-85
2021/03/29 02:53:35;;;;;;;12.25;2.55;;;;;;;13.73;74.47;101345.63;4992538;28;20022;-85
2021/03/29 02:56:08;;;;;;;17.70;2.90;;;;;;;13.83;74.32;101349.31;4992530;28;20448;-85
2021/03/29 02:58:37;;;;;;;15.23;2.63;;;;;;;14.11;73.19;101349.28;4992547;28;20029;-85
2021/03/29 03:01:03;;;;;;;14.75;3.08;;;;;;;13.53;74.99;101349.56;5007599;28;20026;-85
2021/03/29 03:03:29;;;;;;;11.05;2.55;;;;;;;13.27;76.63;101357.34;4992128;28;20481;-85
2021/03/29 03:05:55;;;;;;;13.45;2.60;;;;;;;13.33;76.43;101355.28;4992116;28;20077;-85
2021/03/29 03:08:21;;;;;;;18.40;2.80;;;;;;;13.42;76.31;101350.25;4991296;28;20047;-85
2021/03/29 03:10:47;;;;;;;16.15;3.83;;;;;;;13.64;74.89;101348.84;4992281;28;20027;-85
2021/03/29 03:13:13;;;;;;;14.90;2.45;;;;;;;13.54;75.24;101350.41;4992456;28;20034;-84
2021/03/29 03:15:39;;;;;;;17.77;3.40;;;;;;;13.20;77.79;101344.66;5007318;28;20118;-85
2021/03/29 03:18:07;;;;;;;15.82;2.78;;;;;;;13.36;76.33;101344.53;4992552;28;20023;-85
2021/03/29 03:20:34;;;;;;;18.95;3.63;;;;;;;13.49;75.78;101346.28;4996034;28;20022;-85
2021/03/29 03:23:03;;;;;;;16.50;3.80;;;;;;;13.36;76.61;101352.44;4993492;28;20027;-85
2021/03/29 03:25:35;;;;;;;14.35;2.78;;;;;;;13.54;75.72;101356.50;4992249;28;20026;-85
2021/03/29 03:28:05;;;;;;;18.00;3.25;;;;;;;13.54;76.33;101350.41;4992127;28;20007;-85
2021/03/29 03:30:34;;;;;;;16.10;3.33;;;;;;;13.25;77.81;101355.72;4991979;28;20073;-85
2021/03/29 03:33:00;;;;;;;15.40;3.05;;;;;;;13.43;76.79;101354.59;4992769;28;20018;-85
2021/03/29 03:35:27;;;;;;;13.18;2.90;;;;;;;13.57;76.57;101366.06;4992277;28;20106;-85
2021/03/29 03:37:57;;;;;;;17.27;3.53;;;;;;;13.62;76.05;101358.66;4992245;28;20023;-84
2021/03/29 03:40:23;;;;;;;18.42;3.45;;;;;;;13.56;76.46;101361.69;4991875;28;20035;-85
2021/03/29 03:42:51;;;;;;;13.63;3.70;;;;;;;13.74;75.21;101360.47;4992378;28;20026;-85
2021/03/29 03:45:19;;;;;;;11.15;2.80;;;;;;;13.57;76.55;101366.06;4992309;28;20496;-85
2021/03/29 03:47:46;;;;;;;14.48;2.90;;;;;;;13.73;75.75;101363.25;4992225;28;20088;-85
2021/03/29 03:50:13;;;;;;;15.25;3.30;;;;;;;13.69;76.10;101374.00;4990638;28;20046;-84
2021/03/29 03:52:41;;;;;;;21.92;3.53;;;;;;;13.45;77.08;101371.16;4992003;28;20066;-84
2021/03/29 03:55:08;;;;;;;18.33;3.90;;;;;;;13.78;75.70;101363.78;4994210;28;20045;-84
2021/03/29 03:57:38;;;;;;;9.45;2.83;;;;;;;13.91;74.23;101371.75;4995704;28;20034;-84
2021/03/29 04:00:15;;;;;;;20.00;2.85;;;;;;;13.71;75.79;101373.91;4995846;28;20026;-84
2021/03/29 04:02:40;;;;;;;16.25;3.30;;;;;;;13.59;76.37;101377.34;4995684;28;20023;-84
2021/03/29 04:05:11;;;;;;;14.15;3.10;;;;;;;13.23;78.30;101362.88;4987807;28;20035;-84
2021/03/29 04:07:36;;;;;;;14.68;3.65;;;;;;;13.36;78.44;101370.91;4977004;28;20042;-84
2021/03/29 04:10:37;;;;;;;15.90;3.63;;;;;;;13.30;78.44;101366.88;4976165;28;20034;-84
2021/03/29 04:12:55;;;;;;;14.38;3.60;;;;;;;13.44;77.95;101366.81;4975806;28;20118;-84
2021/03/29 04:15:21;;;;;;;15.10;3.58;;;;;;;13.39;78.61;101374.22;4976008;28;20027;-84
2021/03/29 04:17:46;;;;;;;16.55;3.50;;;;;;;13.61;77.06;101370.19;4974725;28;20642;-84
2021/03/29 04:20:13;;;;;;;11.35;2.55;;;;;;;13.81;76.14;101367.06;4976251;28;20042;-84
2021/03/29 04:22:39;;;;;;;20.88;3.38;;;;;;;13.77;76.31;101384.06;4989116;28;20065;-84
2021/03/29 04:25:06;;;;;;;15.35;4.47;;;;;;;13.32;78.02;101378.16;4995315;28;20058;-84
2021/03/29 04:27:32;;;;;;;14.20;3.55;;;;;;;12.96;80.95;101382.16;4995323;28;20030;-84
2021/03/29 04:29:57;;;;;;;14.70;3.15;;;;;;;12.98;81.09;101387.34;4995121;28;20041;-84
2021/03/29 04:32:23;;;;;;;14.48;2.63;;;;;;;12.97;81.11;101391.75;4995629;28;20037;-84
2021/03/29 04:34:48;;;;;;;18.73;4.32;;;;;;;12.76;83.10;101380.75;4995186;28;20030;-84
2021/03/29 04:37:14;;;;;;;16.00;3.22;;;;;;;13.00;81.94;101391.56;4994941;28;20042;-84
2021/03/29 04:39:39;;;;;;;20.40;3.47;;;;;;;13.14;81.27;101384.59;4995623;28;20049;-83
2021/03/29 04:42:05;;;;;;;20.20;3.42;;;;;;;13.31;80.70;101399.34;4995873;28;20026;-84
2021/03/29 04:44:30;;;;;;;17.27;2.95;;;;;;;13.52;79.53;101389.25;4993734;28;20532;-84
2021/03/29 04:46:55;;;;;;;12.63;2.80;;;;;;;13.17;80.87;101387.88;4994899;28;20022;-84
2021/03/29 04:49:21;;;;;;;16.23;3.17;;;;;;;13.12;81.54;101391.75;4994741;28;20036;-84
2021/03/29 04:51:46;;;;;;;15.10;3.72;;;;;;;13.06;81.58;101385.91;5009973;28;20133;-84
2021/03/29 04:54:11;;;;;;;13.90;3.20;;;;;;;13.15;80.67;101381.88;4994615;28;20049;-84
2021/03/29 04:56:37;;;;;;;16.17;3.55;;;;;;;13.22;80.99;101377.88;4994676;28;20026;-84
2021/03/29 04:59:02;;;;;;;12.10;3.33;;;;;;;13.24;81.15;101383.91;4994669;28;20142;-84
2021/03/29 05:01:27;;;;;;;11.70;3.83;;;;;;;13.15;80.87;101378.34;4995116;28;20030;-84
2021/03/29 05:03:53;;;;;;;17.95;3.53;;;;;;;13.36;79.45;101387.56;4994248;28;20062;-84
2021/03/29 05:06:18;;;;;;;14.65;2.95;;;;;;;13.36;79.32;101386.75;4993705;28;20034;-84
2021/03/29 05:08:43;;;;;;;15.57;3.35;;;;;;;13.28;79.65;101389.81;4994081;28;20065;-84
2021/03/29 05:11:10;;;;;;;8.13;2.80;;;;;;;13.41;78.78;101380.22;4993317;28;20027;-84
2021/03/29 05:13:36;;;;;;;16.67;3.53;;;;;;;13.07;80.47;101386.75;4994372;28;20030;-84
2021/03/29 05:16:01;;;;;;;18.85;4.05;;;;;;;13.64;77.80;101386.63;4994190;28;20034;-84
2021/03/29 05:18:27;;;;;;;12.18;2.45;;;;;;;13.54;78.16;101389.97;4994345;28;20034;-84
2021/03/29 05:20:54;;;;;;;11.00;2.85;;;;;;;13.71;77.19;101392.38;4994298;28;20460;-84
2021/03/29 05:23:19;;;;;;;11.48;2.63;;;;;;;13.04;80.96;101397.50;4993913;28;20405;-84
2021/03/29 05:25:45;;;;;;;14.40;3.03;;;;;;;12.71;82.75;101390.72;4994310;28;20034;-84
2021/03/29 05:28:10;;;;;;;11.25;2.53;;;;;;;12.85;82.76;101390.72;4994213;28;20381;-84
2021/03/29 05:30:35;;;;;;;10.40;2.38;;;;;;;13.00;81.48;101402.13;4994008;28;20393;-84
2021/03/29 05:33:02;;;;;;;8.73;2.78;;;;;;;13.01;81.83;101409.09;4994598;28;20497;-84
2021/03/29 05:35:28;;;;;;;18.67;3.63;;;;;;;12.91;82.21;101405.31;4993917;28;20511;-84
2021/03/29 05:37:53;;;;;;;13.13;2.53;;;;;;;13.24;81.08;101414.72;4994212;28;20034;-84
2021/03/29 05:40:19;;;;;;;15.80;3.70;;;;;;;13.00;82.48;101412.66;4993999;28;20034;-84
2021/03/29 05:42:45;;;;;;;11.73;2.88;;;;;;;13.04;82.48;101414.16;4993760;28;20018;-84
2021/03/29 05:45:12;;;;;;;14.43;3.42;;;;;;;13.16;81.71;101420.47;4993941;28;20084;-84
2021/03/29 05:47:39;;;;;;;12.43;2.53;;;;;;;13.08;82.13;101417.47;4994046;28;20030;-84
2021/03/29 05:50:10;;;;;;;21.42;3.25;;;;;;;12.85;83.06;101421.50;4993936;28;20036;-84
2021/03/29 05:52:37;;;;;;;19.30;3.45;;;;;;;13.11;82.40;101417.25;4993772;28;20105;-84
2021/03/29 05:55:04;;;;;;;18.88;3.50;;;;;;;13.39;80.19;101415.53;4992002;28;20436;-84
2021/03/29 06:00:38;;;;;;;12.43;3.22;;;;;;;13.49;79.83;101425.44;4993749;28;20096;-84
2021/03/29 06:03:26;;;;;;;22.25;4.50;;;;;;;14.08;77.17;101421.63;4993553;28;20030;-84
2021/03/29 06:05:58;;;;;;;9.98;2.92;;;;;;;13.98;77.02;101431.97;4993626;28;20044;-84
2021/03/29 06:08:24;;;;;;;19.30;3.20;;;;;;;13.84;77.35;101430.22;4993474;28;20077;-83
2021/03/29 06:10:53;;;;;;;15.85;3.15;;;;;;;13.84;77.50;101426.72;4994321;28;20045;-84
2021/03/29 06:13:25;;;;;;;19.23;3.42;;;;;;;14.12;75.98;101432.81;4993528;28;20473;-84
2021/03/29 06:16:08;;;;;;;11.48;2.35;;;;;;;14.10;75.87;101435.59;4993293;28;20038;-84
2021/03/29 06:18:48;;;;;;;21.83;3.42;;;;;;;13.81;77.05;101433.06;4992661;28;20038;-84
2021/03/29 06:21:14;;;;;;;11.20;2.97;;;;;;;13.79;76.43;101424.38;4993159;28;20054;-84
2021/03/29 06:23:41;;;;;;;13.38;3.03;;;;;;;13.99;75.98;101414.31;4993014;28;20099;-84
2021/03/29 06:26:27;;;;;;;16.42;3.13;;;;;;;14.05;75.94;101424.47;4993223;28;20037;-84
2021/03/29 06:28:53;;;;;;;16.25;2.92;;;;;;;13.98;75.97;101433.72;4992805;28;20046;-84
2021/03/29 06:31:27;;;;;;;10.30;2.33;;;;;;;14.24;74.39;101442.59;4993034;28;20022;-84
2021/03/29 06:33:54;;;;;;;19.63;3.42;;;;;;;14.20;74.13;101438.47;4993437;28;20022;-83
2021/03/29 06:36:33;;;;;;;14.32;2.75;;;;;;;13.87;76.21;101445.00;4992456;28;20125;-84
2021/03/29 06:39:17;;;;;;;17.25;2.58;;;;;;;13.89;76.16;101443.13;4997859;28;20030;-84
2021/03/29 06:42:01;;;;;;;18.98;3.30;;;;;;;14.09;74.90;101439.16;4993271;28;20373;-84
2021/03/29 06:44:30;;;;;;;20.40;3.10;;;;;;;14.11;75.37;101450.47;4993919;28;20031;-84
2021/03/29 06:47:15;;;;;;;10.02;2.25;;;;;;;14.02;75.12;101458.97;4992149;28;20034;-84
2021/03/29 06:49:44;;;;;;;19.55;3.58;;;;;;;13.61;78.06;101455.47;4994344;28;20030;-85
2021/03/29 06:52:29;;;;;;;12.95;2.55;;;;;;;13.87;76.39;101453.78;4988321;28;20037;-83
2021/03/29 06:55:21;;;;;;;14.48;2.65;;;;;;;14.06;76.12;101456.06;4999521;28;20026;-83
2021/03/29 06:57:59;;;;;;;16.87;2.93;;;;;;;14.02;75.82;101458.97;5031136;28;20037;-84
2021/03/29 07:00:33;;;;;;;11.27;2.40;;;;;;;14.08;75.88;101458.59;5017447;28;20284;-84
2021/03/29 07:03:04;;;;;;;6.47;1.83;;;;;;;13.73;76.89;101458.25;5018257;28;20084;-84
2021/03/29 07:05:31;;;;;;;11.68;1.98;;;;;;;14.21;75.40;101469.19;5017545;28;20015;-84
2021/03/29 07:08:02;;;;;;;13.13;3.20;;;;;;;13.83;77.23;101462.00;5018081;28;20038;-84
2021/03/29 07:10:28;;;;;;;13.55;2.92;;;;;;;13.68;78.47;101463.81;5016717;28;20014;-81
2021/03/29 07:12:54;;;;;;;14.55;2.70;;;;;;;14.19;75.42;101471.09;5000660;28;20110;-82
2021/03/29 07:15:21;;;;;;;15.90;2.22;;;;;;;14.38;74.87;101476.00;4998908;28;20046;-83
2021/03/29 07:17:47;;;;;;;12.65;2.88;;;;;;;14.20;74.94;101478.09;5015867;28;20038;-83
2021/03/29 07:20:15;;;;;;;15.45;1.80;;;;;;;14.32;74.61;101476.41;5014710;28;20069;-83
2021/03/29 07:22:42;;;;;;;14.55;2.17;;;;;;;14.12;75.02;101475.06;5015787;28;20037;-82
2021/03/29 07:25:14;;;;;;;11.27;1.95;;;;;;;14.20;75.38;101489.50;5015544;28;20065;-81
2021/03/29 07:27:55;;;;;;;12.15;2.72;;;;;;;14.36;74.34;101491.13;5012551;28;20021;-82
2021/03/29 07:30:50;;;;;;;12.65;2.05;;;;;;;14.61;72.48;101488.56;5010349;28;20011;-82
2021/03/29 07:33:16;;;;;;;12.23;1.95;;;;;;;14.57;71.83;101487.03;5000171;28;20029;-82
2021/03/29 07:35:56;;;;;;;11.30;2.25;;;;;;;14.45;72.84;101498.41;5008166;28;20034;-82
2021/03/29 07:38:24;;;;;;;10.20;2.75;;;;;;;14.49;73.08;101513.09;5016950;28;20086;-81
2021/03/29 07:40:58;;;;;;;9.60;2.33;;;;;;;14.63;71.61;101494.59;5003327;28;20034;-82
2021/03/29 07:43:28;;;;;;;8.27;1.70;;;;;;;14.78;70.60;101497.13;4991398;28;20121;-82
2021/03/29 07:45:54;;;;;;;8.20;1.60;;;;;;;14.50;71.84;101516.63;4996843;28;20030;-83
2021/03/29 07:48:42;;;;;;;11.07;1.75;;;;;;;14.43;72.11;101526.72;4995995;28;20033;-82
2021/03/29 07:51:14;;;;;;;5.53;1.90;;;;;;;14.59;72.05;101526.59;4991466;28;20027;-82
2021/03/29 07:53:45;;;;;;;9.38;1.55;;;;;;;14.46;72.69;101526.53;4985888;28;20046;-82
2021/03/29 07:56:32;;;;;;;10.43;1.90;;;;;;;14.87;70.72;101530.88;4994348;28;20038;-82
2021/03/29 07:58:57;;;;;;;5.63;1.80;;;;;;;14.95;70.07;101535.63;4995871;28;20077;-83
2021/03/29 08:01:22;;;;;;;7.13;1.50;;;;;;;14.92;69.67;101543.78;4995818;28;20030;-82
2021/03/29 08:03:53;;;;;;;6.88;1.40;;;;;;;14.99;69.42;101543.25;4992727;28;20027;-82
2021/03/29 08:06:42;;;;;;;4.95;1.05;;;;;;;14.82;70.86;101547.03;4982265;28;20019;-83
2021/03/29 08:09:10;;;;;;;8.48;1.80;;;;;;;14.56;71.71;101554.06;4988644;28;20130;-83
2021/03/29 08:11:55;;;;;;;9.73;2.00;;;;;;;14.50;71.19;101546.53;4980738;28;20066;-87
2021/03/29 08:14:30;;;;;;;9.43;2.15;;;;;;;15.05;68.76;101526.13;4976768;28;20393;-85
2021/03/29 08:16:55;;;;;;;11.23;1.15;;;;;;;14.71;71.00;101554.88;4989490;28;20504;-87
2021/03/29 08:19:21;;;;;;;11.10;2.42;;;;;;;15.16;69.84;101546.53;4991974;28;20026;-90
2021/03/29 08:21:57;;;;;;;10.20;1.88;;;;;;;14.83;70.40;101545.22;4984351;28;20027;-88
2021/03/29 08:24:33;;;;;;;9.80;2.13;;;;;;;15.42;68.71;101561.44;4990615;28;20026;-89
2021/03/29 08:27:02;;;;;;;7.88;1.20;;;;;;;15.20;69.34;101556.78;4994303;28;20058;-89
2021/03/29 08:29:31;;;;;;;11.48;1.88;;;;;;;14.67;71.06;101559.50;5004830;28;20037;-89
2021/03/29 08:32:00;;;;;;;14.10;1.60;;;;;;;14.39;72.73;101555.16;4982473;28;20031;-90
2021/03/29 08:34:33;;;;;;;8.32;1.65;;;;;;;14.46;71.67;101563.53;5017113;28;20031;-88
2021/03/29 08:37:01;;;;;;;9.63;1.52;;;;;;;14.27;73.71;101569.16;4989782;28;20109;-89
2021/03/29 08:39:30;;;;;;;8.75;2.03;;;;;;;14.73;71.29;101567.97;5013417;28;20049;-88
2021/03/29 08:41:57;;;;;;;10.32;1.67;;;;;;;14.66;71.29;101549.03;4995253;28;20050;-88
2021/03/29 08:44:23;;;;;;;13.15;1.95;;;;;;;14.66;72.46;101554.31;4995879;28;20114;-87
2021/03/29 08:46:50;;;;;;;8.43;1.40;;;;;;;14.97;70.20;101555.75;4996391;28;20534;-88
2021/03/29 08:49:16;;;;;;;7.10;1.45;;;;;;;14.90;70.93;101566.84;5008535;28;20116;-88
2021/03/29 08:51:42;;;;;;;6.60;1.60;;;;;;;15.02;70.43;101574.75;4993436;28;20034;-88
2021/03/29 08:54:11;;;;;;;6.97;1.58;;;;;;;15.15;69.92;101574.78;4978067;28;20043;-87
2021/03/29 08:56:42;;;;;;;10.75;2.15;;;;;;;14.83;70.83;101571.66;4990308;28;20042;-88
2021/03/29 08:59:09;;;;;;;5.32;1.10;;;;;;;15.63;68.62;101571.47;4996552;28;20050;-88
2021/03/29 09:01:35;;;;;;;10.18;1.85;;;;;;;15.34;69.44;101576.16;4990925;28;20059;-88
2021/03/29 09:04:02;;;;;;;7.95;2.20;;;;;;;14.94;71.97;101578.91;4996549;28;20092;-88
2021/03/29 09:06:28;;;;;;;8.85;1.70;;;;;;;15.25;70.25;101572.34;5011998;28;20633;-89
2021/03/29 09:08:54;;;;;;;9.57;1.30;;;;;;;15.71;68.20;101577.06;4991589;28;20057;-91
2021/03/29 09:11:19;;;;;;;8.75;1.63;;;;;;;15.75;67.93;101581.22;4989143;28;20026;-91
2021/03/29 09:13:45;;;;;;;4.07;1.10;;;;;;;15.92;67.10;101579.19;5012006;28;20080;-90
2021/03/29 09:16:10;;;;;;;6.07;1.30;;;;;;;16.06;66.13;101579.88;4980621;28;20375;-91
2021/03/29 09:18:35;;;;;;;12.13;1.58;;;;;;;16.08;66.41;101579.75;4990423;28;20059;-91
2021/03/29 09:21:01;;;;;;;5.07;1.45;;;;;;;16.83;63.07;101574.22;4983974;28;20481;-91
2021/03/29 09:23:28;;;;;;;6.43;1.48;;;;;;;16.19;65.81;101585.13;4988911;28;20050;-91
2021/03/29 09:25:55;;;;;;;6.93;1.75;;;;;;;16.32;65.19;101585.06;4985046;28;20085;-90
2021/03/29 09:30:56;;;;;;;9.13;2.05;;;;;;;16.47;64.85;101599.00;4988349;28;20109;-90
2021/03/29 09:33:22;;;;;;;5.43;1.35;;;;;;;16.22;64.60;101584.91;4989130;28;20531;-91
2021/03/29 09:35:50;;;;;;;11.25;2.65;;;;;;;16.03;65.97;101588.06;4977766;28;20110;-89
2021/03/29 09:38:52;;;;;;;7.18;1.73;;;;;;;16.22;65.80;101592.00;4988523;28;20030;-89
2021/03/29 09:41:23;;;;;;;8.52;1.38;;;;;;;16.35;65.32;101611.34;4996249;28;20496;-89
2021/03/29 09:43:51;;;;;;;6.75;1.30;;;;;;;16.42;65.40;101606.44;4993603;28;20038;-89
2021/03/29 09:46:17;;;;;;;7.95;1.58;;;;;;;16.75;64.37;101605.75;4986739;28;20374;-90
2021/03/29 09:48:43;;;;;;;10.18;2.15;;;;;;;16.37;65.79;101619.19;4997469;28;20046;-89
2021/03/29 09:51:20;;;;;;;7.47;1.65;;;;;;;16.51;65.53;101610.22;4991926;28;20504;-90
2021/03/29 09:53:45;;;;;;;6.60;1.52;;;;;;;16.72;64.13;101608.63;4992648;28;20022;-88
2021/03/29 09:56:11;;;;;;;6.40;1.55;;;;;;;16.83;64.05;101611.34;4995717;28;20503;-89
2021/03/29 09:58:45;;;;;;;7.63;1.55;;;;;;;16.83;63.14;101608.69;4995315;28;20061;-88
2021/03/29 10:01:24;;;;;;;14.48;2.25;;;;;;;16.77;63.32;101608.28;4992164;28;20485;-90
2021/03/29 10:04:00;;;;;;;5.97;2.55;;;;;;;16.61;65.81;101614.72;4975329;28;20093;-89
2021/03/29 10:06:29;;;;;;;7.82;1.92;;;;;;;16.64;64.87;101617.13;5003409;28;20125;-89
2021/03/29 10:09:03;;;;;;;8.50;2.10;;;;;;;16.65;64.35;101618.84;4995952;28;20036;-90
2021/03/29 10:11:47;;;;;;;5.22;1.60;;;;;;;16.82;63.42;101616.75;4991198;28;20023;-89
2021/03/29 10:14:16;;;;;;;5.70;1.70;;;;;;;16.88;63.67;101613.63;4997049;28;20503;-90
2021/03/29 10:16:47;;;;;;;25.88;3.72;;;;;;;16.59;65.36;101629.91;4991964;28;20121;-89
2021/03/29 10:19:15;;;;;;;31.15;4.05;;;;;;;16.57;66.23;101639.78;4979330;28;20437;-89
2021/03/29 10:22:09;;;;;;;10.77;2.53;;;;;;;17.22;63.28;101637.63;4976073;28;20023;-89
2021/03/29 10:24:36;;;;;;;13.48;1.90;;;;;;;17.30;62.21;101640.53;4975726;28;20062;-89
2021/03/29 10:27:07;;;;;;;6.88;1.92;;;;;;;17.19;62.40;101636.03;4985998;28;20428;-88
2021/03/29 10:29:37;;;;;;;8.75;1.90;;;;;;;17.14;64.18;101640.88;4994400;28;20126;-86
2021/03/29 10:32:09;;;;;;;12.40;2.17;;;;;;;17.31;62.62;101647.53;4994170;28;20026;-86
2021/03/29 10:34:38;;;;;;;6.20;1.83;;;;;;;16.71;64.36;101645.88;4994336;28;20350;-85
2021/03/29 10:37:24;;;;;;;7.47;1.83;;;;;;;17.38;63.10;101648.75;4993394;28;20041;-85
2021/03/29 10:39:51;;;;;;;8.52;2.30;;;;;;;17.09;63.82;101636.88;4991421;28;20519;-86
2021/03/29 10:42:18;;;;;;;11.73;2.47;;;;;;;16.92;64.54;101643.44;4974593;28;20033;-84
2021/03/29 10:44:44;;;;;;;10.52;2.45;;;;;;;16.78;65.47;101655.91;4987586;28;20030;-85
2021/03/29 10:47:10;;;;;;;8.57;2.83;;;;;;;16.58;65.79;101653.88;4989002;28;20117;-84
2021/03/29 10:49:36;;;;;;;9.75;2.80;;;;;;;16.61;66.06;101643.91;4979702;28;20027;-85
2021/03/29 10:52:02;;;;;;;8.80;2.28;;;;;;;16.87;64.32;101649.09;4990713;28;20097;-86
2021/03/29 10:54:27;;;;;;;11.80;2.83;;;;;;;16.24;66.71;101649.22;4996226;28;20027;-84
2021/03/29 10:56:52;;;;;;;16.45;2.70;;;;;;;16.43;66.43;101639.97;4996606;28;20065;-86
2021/03/29 10:59:18;;;;;;;47.70;3.85;;;;;;;16.59;64.55;101629.91;4992332;28;20121;-86
2021/03/29 11:01:43;;;;;;;41.40;5.38;;;;;;;16.68;64.71;101649.59;4995862;28;20030;-88
2021/03/29 11:04:08;;;;;;;13.90;3.58;;;;;;;16.82;63.91;101638.84;4973639;28;20037;-88
2021/03/29 11:06:34;;;;;;;7.22;2.42;;;;;;;16.68;64.75;101648.75;4983042;28;20419;-88
2021/03/29 11:08:59;;;;;;;10.35;2.70;;;;;;;16.88;64.78;101634.88;4999423;28;20543;-88
2021/03/29 11:11:25;;;;;;;11.95;2.80;;;;;;;17.30;64.27;101652.94;4982500;28;20125;-88
2021/03/29 11:13:50;;;;;;;6.30;2.10;;;;;;;17.70;62.83;101637.44;4979268;28;20577;-87
2021/03/29 11:16:16;;;;;;;13.63;2.35;;;;;;;17.00;64.17;101647.22;4978714;28;20038;-89
2021/03/29 11:18:41;;;;;;;8.57;2.78;;;;;;;16.83;65.83;101648.47;4972603;28;20410;-87
2021/03/29 11:21:07;;;;;;;64.32;6.28;;;;;;;16.84;65.52;101651.97;4971943;28;20065;-87
2021/03/29 11:23:34;;;;;;;16.00;2.92;;;;;;;17.16;63.57;101640.75;4971460;28;20117;-87
2021/03/29 11:25:59;;;;;;;38.85;4.88;;;;;;;17.58;63.62;101643.72;4973576;28;20026;-87
2021/03/29 11:28:25;;;;;;;100.88;8.65;;;;;;;18.01;60.87;101629.75;4972637;28;20050;-87
2021/03/29 11:30:50;;;;;;;24.48;3.30;;;;;;;17.91;62.26;101639.38;4973020;28;20026;-86
2021/03/29 11:33:16;;;;;;;16.25;3.40;;;;;;;18.07;60.80;101645.19;4980959;28;20449;-88